sensor_id;sensor_type;location;lat;lon;timestamp;P1;durP1;ratioP1;P2;durP2;ratioP2
68944;SDS011;55984;48.790;8.990;2023-08-21T00:00:54;10.33;;;4.90;;
68944;SDS011;55984;48.790;8.990;2023-08-21T00:03:20;10.20;;;5.27;;
68944;SDS011;55984;48.790;8.990;2023-08-21T00:05:47;8.60;;;4.67;;
68944;SDS011;55984;48.790;8.990;2023-08-21T00:08:13;8.40;;;4.37;;
68944;SDS011;55984;48.790;8.990;2023-08-21T00:10:39;7.17;;;3.90;;
68944;SDS011;55984;48.790;8.990;2023-08-21T00:13:06;8.70;;;4.97;;
68944;SDS011;55984;48.790;8.990;2023-08-21T00:15:32;8.07;;;3.83;;
68944;SDS011;55984;48.790;8.990;2023-08-21T00:17:58;8.07;;;4.80;;
68944;SDS011;55984;48.790;8.990;2023-08-21T00:20:25;6.90;;;4.03;;
68944;SDS011;55984;48.790;8.990;2023-08-21T00:22:51;8.80;;;4.67;;
68944;SDS011;55984;48.790;8.990;2023-08-21T00:25:17;6.90;;;4.30;;
68944;SDS011;55984;48.790;8.990;2023-08-21T00:27:43;8.63;;;4.80;;
68944;SDS011;55984;48.790;8.990;2023-08-21T00:30:09;7.27;;;3.80;;
68944;SDS011;55984;48.790;8.990;2023-08-21T00:32:35;7.00;;;3.90;;
68944;SDS011;55984;48.790;8.990;2023-08-21T00:35:02;8.40;;;4.23;;
68944;SDS011;55984;48.790;8.990;2023-08-21T00:37:28;8.60;;;4.97;;
68944;SDS011;55984;48.790;8.990;2023-08-21T00:39:53;7.97;;;4.80;;
68944;SDS011;55984;48.790;8.990;2023-08-21T00:42:19;6.80;;;4.70;;
68944;SDS011;55984;48.790;8.990;2023-08-21T00:44:45;8.43;;;4.43;;
68944;SDS011;55984;48.790;8.990;2023-08-21T00:47:11;7.57;;;4.50;;
68944;SDS011;55984;48.790;8.990;2023-08-21T00:49:37;8.53;;;4.30;;
68944;SDS011;55984;48.790;8.990;2023-08-21T00:52:04;8.90;;;4.80;;
68944;SDS011;55984;48.790;8.990;2023-08-21T00:54:34;6.63;;;4.10;;
68944;SDS011;55984;48.790;8.990;2023-08-21T00:57:00;6.97;;;4.10;;
68944;SDS011;55984;48.790;8.990;2023-08-21T00:59:27;7.00;;;4.37;;
68944;SDS011;55984;48.790;8.990;2023-08-21T01:01:54;8.00;;;4.43;;
68944;SDS011;55984;48.790;8.990;2023-08-21T01:04:20;5.80;;;4.00;;
68944;SDS011;55984;48.790;8.990;2023-08-21T01:06:48;7.43;;;4.60;;
68944;SDS011;55984;48.790;8.990;2023-08-21T01:14:47;8.00;;;4.73;;
68944;SDS011;55984;48.790;8.990;2023-08-21T01:17:36;7.93;;;4.57;;
68944;SDS011;55984;48.790;8.990;2023-08-21T01:20:03;8.57;;;4.43;;
68944;SDS011;55984;48.790;8.990;2023-08-21T01:22:37;7.47;;;4.50;;
68944;SDS011;55984;48.790;8.990;2023-08-21T01:25:04;7.80;;;4.33;;
68944;SDS011;55984;48.790;8.990;2023-08-21T01:27:30;7.93;;;4.13;;
68944;SDS011;55984;48.790;8.990;2023-08-21T01:29:57;6.90;;;4.40;;
68944;SDS011;55984;48.790;8.990;2023-08-21T01:32:35;8.67;;;4.43;;
68944;SDS011;55984;48.790;8.990;2023-08-21T01:35:08;10.37;;;4.63;;
68944;SDS011;55984;48.790;8.990;2023-08-21T01:37:36;7.77;;;4.30;;
68944;SDS011;55984;48.790;8.990;2023-08-21T01:40:02;8.07;;;4.33;;
68944;SDS011;55984;48.790;8.990;2023-08-21T01:42:28;8.40;;;5.30;;
68944;SDS011;55984;48.790;8.990;2023-08-21T01:44:54;6.37;;;4.57;;
68944;SDS011;55984;48.790;8.990;2023-08-21T01:47:20;12.00;;;4.67;;
68944;SDS011;55984;48.790;8.990;2023-08-21T01:49:46;8.23;;;4.17;;
68944;SDS011;55984;48.790;8.990;2023-08-21T01:52:12;7.27;;;4.30;;
68944;SDS011;55984;48.790;8.990;2023-08-21T01:54:39;8.97;;;4.97;;
68944;SDS011;55984;48.790;8.990;2023-08-21T01:57:04;11.57;;;5.07;;
68944;SDS011;55984;48.790;8.990;2023-08-21T01:59:30;10.40;;;5.10;;
68944;SDS011;55984;48.790;8.990;2023-08-21T02:01:56;7.20;;;4.10;;
68944;SDS011;55984;48.790;8.990;2023-08-21T02:04:22;8.00;;;4.20;;
68944;SDS011;55984;48.790;8.990;2023-08-21T02:06:48;8.20;;;5.10;;
68944;SDS011;55984;48.790;8.990;2023-08-21T02:09:14;12.90;;;4.40;;
68944;SDS011;55984;48.790;8.990;2023-08-21T02:11:40;7.80;;;4.50;;
68944;SDS011;55984;48.790;8.990;2023-08-21T02:14:06;8.47;;;4.50;;
68944;SDS011;55984;48.790;8.990;2023-08-21T02:16:32;11.13;;;4.70;;
68944;SDS011;55984;48.790;8.990;2023-08-21T02:18:58;9.67;;;5.03;;
68944;SDS011;55984;48.790;8.990;2023-08-21T02:21:24;9.53;;;4.97;;
68944;SDS011;55984;48.790;8.990;2023-08-21T02:23:50;7.67;;;4.07;;
68944;SDS011;55984;48.790;8.990;2023-08-21T02:26:16;6.67;;;4.40;;
68944;SDS011;55984;48.790;8.990;2023-08-21T02:28:42;11.50;;;4.63;;
68944;SDS011;55984;48.790;8.990;2023-08-21T02:31:11;11.73;;;4.97;;
68944;SDS011;55984;48.790;8.990;2023-08-21T02:33:38;8.63;;;4.47;;
68944;SDS011;55984;48.790;8.990;2023-08-21T02:36:04;9.93;;;4.83;;
68944;SDS011;55984;48.790;8.990;2023-08-21T02:38:29;7.90;;;4.53;;
68944;SDS011;55984;48.790;8.990;2023-08-21T02:40:55;12.93;;;4.93;;
68944;SDS011;55984;48.790;8.990;2023-08-21T02:43:21;9.73;;;4.90;;
68944;SDS011;55984;48.790;8.990;2023-08-21T02:45:47;5.93;;;4.20;;
68944;SDS011;55984;48.790;8.990;2023-08-21T02:48:13;10.80;;;5.40;;
68944;SDS011;55984;48.790;8.990;2023-08-21T02:50:39;9.70;;;4.67;;
68944;SDS011;55984;48.790;8.990;2023-08-21T02:53:06;10.60;;;4.63;;
68944;SDS011;55984;48.790;8.990;2023-08-21T02:55:32;8.97;;;4.70;;
68944;SDS011;55984;48.790;8.990;2023-08-21T02:57:58;7.53;;;4.20;;
68944;SDS011;55984;48.790;8.990;2023-08-21T03:00:24;6.83;;;4.37;;
68944;SDS011;55984;48.790;8.990;2023-08-21T03:02:50;9.13;;;4.47;;
68944;SDS011;55984;48.790;8.990;2023-08-21T03:05:16;8.80;;;4.73;;
68944;SDS011;55984;48.790;8.990;2023-08-21T03:07:42;11.77;;;5.20;;
68944;SDS011;55984;48.790;8.990;2023-08-21T03:10:08;8.10;;;4.33;;
68944;SDS011;55984;48.790;8.990;2023-08-21T03:12:34;7.93;;;4.20;;
68944;SDS011;55984;48.790;8.990;2023-08-21T03:15:01;8.93;;;4.53;;
68944;SDS011;55984;48.790;8.990;2023-08-21T03:17:26;9.43;;;4.00;;
68944;SDS011;55984;48.790;8.990;2023-08-21T03:19:52;10.87;;;4.60;;
68944;SDS011;55984;48.790;8.990;2023-08-21T03:22:18;8.83;;;4.17;;
68944;SDS011;55984;48.790;8.990;2023-08-21T03:24:44;8.20;;;4.33;;
68944;SDS011;55984;48.790;8.990;2023-08-21T03:27:10;11.80;;;5.27;;
68944;SDS011;55984;48.790;8.990;2023-08-21T03:29:36;10.80;;;5.60;;
68944;SDS011;55984;48.790;8.990;2023-08-21T03:32:02;10.13;;;4.70;;
68944;SDS011;55984;48.790;8.990;2023-08-21T03:34:28;11.70;;;5.17;;
68944;SDS011;55984;48.790;8.990;2023-08-21T03:36:54;9.87;;;4.93;;
68944;SDS011;55984;48.790;8.990;2023-08-21T03:39:20;11.80;;;5.40;;
68944;SDS011;55984;48.790;8.990;2023-08-21T03:41:45;9.50;;;4.47;;
68944;SDS011;55984;48.790;8.990;2023-08-21T03:44:11;8.00;;;4.60;;
68944;SDS011;55984;48.790;8.990;2023-08-21T03:46:37;9.60;;;4.60;;
68944;SDS011;55984;48.790;8.990;2023-08-21T03:49:03;9.90;;;4.93;;
68944;SDS011;55984;48.790;8.990;2023-08-21T03:51:29;11.67;;;5.07;;
68944;SDS011;55984;48.790;8.990;2023-08-21T03:53:55;10.53;;;4.43;;
68944;SDS011;55984;48.790;8.990;2023-08-21T03:56:21;8.13;;;4.47;;
68944;SDS011;55984;48.790;8.990;2023-08-21T03:58:49;14.00;;;5.47;;
68944;SDS011;55984;48.790;8.990;2023-08-21T04:01:15;11.50;;;5.37;;
68944;SDS011;55984;48.790;8.990;2023-08-21T04:03:41;7.53;;;4.40;;
68944;SDS011;55984;48.790;8.990;2023-08-21T04:06:07;8.27;;;4.77;;
68944;SDS011;55984;48.790;8.990;2023-08-21T04:08:33;9.07;;;5.07;;
68944;SDS011;55984;48.790;8.990;2023-08-21T04:10:59;10.17;;;4.73;;
68944;SDS011;55984;48.790;8.990;2023-08-21T04:13:25;10.77;;;4.80;;
68944;SDS011;55984;48.790;8.990;2023-08-21T04:15:53;12.90;;;5.17;;
68944;SDS011;55984;48.790;8.990;2023-08-21T04:18:20;10.20;;;5.10;;
68944;SDS011;55984;48.790;8.990;2023-08-21T04:20:49;7.13;;;4.27;;
68944;SDS011;55984;48.790;8.990;2023-08-21T04:23:15;11.67;;;5.00;;
68944;SDS011;55984;48.790;8.990;2023-08-21T04:25:41;10.93;;;4.90;;
68944;SDS011;55984;48.790;8.990;2023-08-21T04:28:08;9.37;;;4.50;;
68944;SDS011;55984;48.790;8.990;2023-08-21T04:30:34;10.83;;;5.17;;
68944;SDS011;55984;48.790;8.990;2023-08-21T04:33:00;9.13;;;4.57;;
68944;SDS011;55984;48.790;8.990;2023-08-21T04:35:27;9.03;;;4.80;;
68944;SDS011;55984;48.790;8.990;2023-08-21T04:37:53;8.20;;;4.87;;
68944;SDS011;55984;48.790;8.990;2023-08-21T04:40:19;8.47;;;4.37;;
68944;SDS011;55984;48.790;8.990;2023-08-21T04:42:47;12.50;;;4.73;;
68944;SDS011;55984;48.790;8.990;2023-08-21T04:45:14;8.40;;;3.90;;
68944;SDS011;55984;48.790;8.990;2023-08-21T04:47:40;11.23;;;4.70;;
68944;SDS011;55984;48.790;8.990;2023-08-21T04:50:06;10.77;;;5.30;;
68944;SDS011;55984;48.790;8.990;2023-08-21T04:52:32;9.70;;;5.40;;
68944;SDS011;55984;48.790;8.990;2023-08-21T04:54:59;10.47;;;4.80;;
68944;SDS011;55984;48.790;8.990;2023-08-21T04:57:24;13.53;;;5.17;;
68944;SDS011;55984;48.790;8.990;2023-08-21T04:59:50;10.40;;;5.60;;
68944;SDS011;55984;48.790;8.990;2023-08-21T05:02:16;8.67;;;5.17;;
68944;SDS011;55984;48.790;8.990;2023-08-21T05:04:42;9.83;;;5.50;;
68944;SDS011;55984;48.790;8.990;2023-08-21T05:07:08;12.40;;;6.00;;
68944;SDS011;55984;48.790;8.990;2023-08-21T05:09:34;10.03;;;5.87;;
68944;SDS011;55984;48.790;8.990;2023-08-21T05:12:00;11.33;;;5.97;;
68944;SDS011;55984;48.790;8.990;2023-08-21T05:14:26;11.20;;;5.20;;
68944;SDS011;55984;48.790;8.990;2023-08-21T05:16:52;14.60;;;6.80;;
68944;SDS011;55984;48.790;8.990;2023-08-21T05:19:18;12.13;;;6.40;;
68944;SDS011;55984;48.790;8.990;2023-08-21T05:21:46;12.77;;;6.20;;
68944;SDS011;55984;48.790;8.990;2023-08-21T05:24:12;14.27;;;6.50;;
68944;SDS011;55984;48.790;8.990;2023-08-21T05:26:38;12.30;;;6.50;;
68944;SDS011;55984;48.790;8.990;2023-08-21T05:29:04;13.13;;;6.60;;
68944;SDS011;55984;48.790;8.990;2023-08-21T05:31:30;10.53;;;5.60;;
68944;SDS011;55984;48.790;8.990;2023-08-21T05:33:56;9.23;;;5.37;;
68944;SDS011;55984;48.790;8.990;2023-08-21T05:36:22;10.30;;;5.10;;
68944;SDS011;55984;48.790;8.990;2023-08-21T05:38:48;9.23;;;4.93;;
68944;SDS011;55984;48.790;8.990;2023-08-21T05:41:16;11.30;;;6.20;;
68944;SDS011;55984;48.790;8.990;2023-08-21T05:43:42;9.60;;;5.27;;
68944;SDS011;55984;48.790;8.990;2023-08-21T05:46:08;10.70;;;5.97;;
68944;SDS011;55984;48.790;8.990;2023-08-21T05:48:34;7.97;;;5.07;;
68944;SDS011;55984;48.790;8.990;2023-08-21T05:51:00;6.93;;;4.30;;
68944;SDS011;55984;48.790;8.990;2023-08-21T05:53:26;9.30;;;5.20;;
68944;SDS011;55984;48.790;8.990;2023-08-21T05:55:53;7.70;;;4.70;;
68944;SDS011;55984;48.790;8.990;2023-08-21T05:58:19;7.60;;;4.60;;
68944;SDS011;55984;48.790;8.990;2023-08-21T06:00:46;11.07;;;5.30;;
68944;SDS011;55984;48.790;8.990;2023-08-21T06:03:12;6.73;;;4.50;;
68944;SDS011;55984;48.790;8.990;2023-08-21T06:05:38;9.90;;;5.23;;
68944;SDS011;55984;48.790;8.990;2023-08-21T06:08:13;7.80;;;4.73;;
68944;SDS011;55984;48.790;8.990;2023-08-21T06:10:43;8.03;;;4.80;;
68944;SDS011;55984;48.790;8.990;2023-08-21T06:13:09;7.93;;;4.60;;
68944;SDS011;55984;48.790;8.990;2023-08-21T06:15:35;8.70;;;4.70;;
68944;SDS011;55984;48.790;8.990;2023-08-21T06:18:01;7.23;;;4.03;;
68944;SDS011;55984;48.790;8.990;2023-08-21T06:20:27;9.33;;;5.07;;
68944;SDS011;55984;48.790;8.990;2023-08-21T06:22:52;8.03;;;4.90;;
68944;SDS011;55984;48.790;8.990;2023-08-21T06:25:18;6.07;;;4.10;;
68944;SDS011;55984;48.790;8.990;2023-08-21T06:27:44;7.40;;;4.23;;
68944;SDS011;55984;48.790;8.990;2023-08-21T06:30:13;11.37;;;5.00;;
68944;SDS011;55984;48.790;8.990;2023-08-21T06:32:40;11.43;;;4.40;;
68944;SDS011;55984;48.790;8.990;2023-08-21T06:35:06;6.83;;;4.50;;
68944;SDS011;55984;48.790;8.990;2023-08-21T06:37:32;6.77;;;4.47;;
68944;SDS011;55984;48.790;8.990;2023-08-21T06:39:58;7.93;;;4.60;;
68944;SDS011;55984;48.790;8.990;2023-08-21T06:42:24;6.20;;;4.53;;
68944;SDS011;55984;48.790;8.990;2023-08-21T06:44:50;8.27;;;5.17;;
68944;SDS011;55984;48.790;8.990;2023-08-21T06:47:16;6.30;;;4.30;;
68944;SDS011;55984;48.790;8.990;2023-08-21T06:49:41;6.27;;;4.20;;
68944;SDS011;55984;48.790;8.990;2023-08-21T06:52:07;5.70;;;3.73;;
68944;SDS011;55984;48.790;8.990;2023-08-21T06:54:33;7.13;;;4.37;;
68944;SDS011;55984;48.790;8.990;2023-08-21T06:56:59;7.20;;;4.10;;
68944;SDS011;55984;48.790;8.990;2023-08-21T06:59:25;6.97;;;4.50;;
68944;SDS011;55984;48.790;8.990;2023-08-21T07:01:51;7.03;;;4.50;;
68944;SDS011;55984;48.790;8.990;2023-08-21T07:04:17;6.30;;;4.03;;
68944;SDS011;55984;48.790;8.990;2023-08-21T07:06:43;5.67;;;3.80;;
68944;SDS011;55984;48.790;8.990;2023-08-21T07:09:09;6.93;;;3.77;;
68944;SDS011;55984;48.790;8.990;2023-08-21T07:11:35;8.70;;;4.27;;
68944;SDS011;55984;48.790;8.990;2023-08-21T07:14:01;6.30;;;4.07;;
68944;SDS011;55984;48.790;8.990;2023-08-21T07:16:26;6.10;;;3.80;;
68944;SDS011;55984;48.790;8.990;2023-08-21T07:18:52;7.93;;;4.00;;
68944;SDS011;55984;48.790;8.990;2023-08-21T07:21:18;6.63;;;3.93;;
68944;SDS011;55984;48.790;8.990;2023-08-21T07:23:46;5.83;;;3.57;;
68944;SDS011;55984;48.790;8.990;2023-08-21T07:26:27;6.50;;;3.90;;
68944;SDS011;55984;48.790;8.990;2023-08-21T07:28:53;6.47;;;4.00;;
68944;SDS011;55984;48.790;8.990;2023-08-21T07:31:19;5.33;;;3.63;;
68944;SDS011;55984;48.790;8.990;2023-08-21T07:33:45;6.47;;;4.27;;
68944;SDS011;55984;48.790;8.990;2023-08-21T07:36:11;7.80;;;4.43;;
68944;SDS011;55984;48.790;8.990;2023-08-21T07:38:42;16.40;;;4.13;;
68944;SDS011;55984;48.790;8.990;2023-08-21T07:41:11;14.00;;;5.47;;
68944;SDS011;55984;48.790;8.990;2023-08-21T07:43:39;7.17;;;3.97;;
68944;SDS011;55984;48.790;8.990;2023-08-21T07:46:07;6.57;;;4.03;;
68944;SDS011;55984;48.790;8.990;2023-08-21T07:48:36;6.03;;;3.90;;
68944;SDS011;55984;48.790;8.990;2023-08-21T07:51:02;5.50;;;3.93;;
68944;SDS011;55984;48.790;8.990;2023-08-21T07:53:28;8.23;;;4.10;;
68944;SDS011;55984;48.790;8.990;2023-08-21T07:55:56;6.50;;;4.13;;
68944;SDS011;55984;48.790;8.990;2023-08-21T07:58:22;6.70;;;4.20;;
68944;SDS011;55984;48.790;8.990;2023-08-21T08:00:48;7.23;;;4.00;;
68944;SDS011;55984;48.790;8.990;2023-08-21T08:03:17;7.13;;;4.17;;
68944;SDS011;55984;48.790;8.990;2023-08-21T08:05:43;5.97;;;4.00;;
68944;SDS011;55984;48.790;8.990;2023-08-21T08:08:09;6.40;;;4.13;;
68944;SDS011;55984;48.790;8.990;2023-08-21T08:10:38;7.20;;;4.60;;
68944;SDS011;55984;48.790;8.990;2023-08-21T08:13:05;7.20;;;4.00;;
68944;SDS011;55984;48.790;8.990;2023-08-21T08:15:32;6.00;;;4.20;;
68944;SDS011;55984;48.790;8.990;2023-08-21T08:17:59;6.37;;;4.10;;
68944;SDS011;55984;48.790;8.990;2023-08-21T08:20:25;5.50;;;4.03;;
68944;SDS011;55984;48.790;8.990;2023-08-21T08:22:51;4.93;;;3.67;;
68944;SDS011;55984;48.790;8.990;2023-08-21T08:25:17;7.33;;;3.97;;
68944;SDS011;55984;48.790;8.990;2023-08-21T08:27:43;9.03;;;4.20;;
68944;SDS011;55984;48.790;8.990;2023-08-21T08:30:17;5.50;;;3.90;;
68944;SDS011;55984;48.790;8.990;2023-08-21T08:32:44;6.13;;;4.43;;
68944;SDS011;55984;48.790;8.990;2023-08-21T08:35:14;5.90;;;3.60;;
68944;SDS011;55984;48.790;8.990;2023-08-21T08:37:40;5.67;;;3.80;;
68944;SDS011;55984;48.790;8.990;2023-08-21T08:40:07;6.03;;;4.33;;
68944;SDS011;55984;48.790;8.990;2023-08-21T08:42:36;5.77;;;3.80;;
68944;SDS011;55984;48.790;8.990;2023-08-21T08:45:03;6.57;;;4.20;;
68944;SDS011;55984;48.790;8.990;2023-08-21T08:47:33;5.87;;;3.80;;
68944;SDS011;55984;48.790;8.990;2023-08-21T08:50:04;6.50;;;4.10;;
68944;SDS011;55984;48.790;8.990;2023-08-21T08:52:36;6.47;;;3.97;;
68944;SDS011;55984;48.790;8.990;2023-08-21T08:55:03;8.23;;;4.47;;
68944;SDS011;55984;48.790;8.990;2023-08-21T08:57:29;8.73;;;4.93;;
68944;SDS011;55984;48.790;8.990;2023-08-21T08:59:56;10.10;;;3.97;;
68944;SDS011;55984;48.790;8.990;2023-08-21T09:02:22;6.13;;;4.20;;
68944;SDS011;55984;48.790;8.990;2023-08-21T09:04:51;6.03;;;3.83;;
68944;SDS011;55984;48.790;8.990;2023-08-21T09:07:17;11.43;;;4.70;;
68944;SDS011;55984;48.790;8.990;2023-08-21T09:09:45;6.10;;;4.10;;
68944;SDS011;55984;48.790;8.990;2023-08-21T09:12:13;7.90;;;3.70;;
68944;SDS011;55984;48.790;8.990;2023-08-21T09:14:40;5.90;;;3.90;;
68944;SDS011;55984;48.790;8.990;2023-08-21T09:17:07;5.47;;;4.10;;
68944;SDS011;55984;48.790;8.990;2023-08-21T09:19:33;5.70;;;3.73;;
68944;SDS011;55984;48.790;8.990;2023-08-21T09:22:11;6.83;;;3.60;;
68944;SDS011;55984;48.790;8.990;2023-08-21T09:25:00;6.07;;;4.30;;
68944;SDS011;55984;48.790;8.990;2023-08-21T09:27:34;5.90;;;4.00;;
68944;SDS011;55984;48.790;8.990;2023-08-21T09:30:03;4.83;;;3.50;;
68944;SDS011;55984;48.790;8.990;2023-08-21T09:35:31;5.00;;;3.37;;
68944;SDS011;55984;48.790;8.990;2023-08-21T09:37:58;4.60;;;3.30;;
68944;SDS011;55984;48.790;8.990;2023-08-21T09:40:26;5.53;;;3.63;;
68944;SDS011;55984;48.790;8.990;2023-08-21T09:42:53;4.80;;;3.43;;
68944;SDS011;55984;48.790;8.990;2023-08-21T09:45:22;4.93;;;3.30;;
68944;SDS011;55984;48.790;8.990;2023-08-21T09:47:50;5.30;;;3.50;;
68944;SDS011;55984;48.790;8.990;2023-08-21T09:50:18;4.73;;;3.43;;
68944;SDS011;55984;48.790;8.990;2023-08-21T09:52:48;5.10;;;3.70;;
68944;SDS011;55984;48.790;8.990;2023-08-21T09:55:15;5.80;;;3.73;;
68944;SDS011;55984;48.790;8.990;2023-08-21T09:57:41;5.67;;;3.83;;
68944;SDS011;55984;48.790;8.990;2023-08-21T10:00:07;5.67;;;4.10;;
68944;SDS011;55984;48.790;8.990;2023-08-21T10:02:42;5.40;;;3.63;;
68944;SDS011;55984;48.790;8.990;2023-08-21T10:05:09;5.47;;;3.50;;
68944;SDS011;55984;48.790;8.990;2023-08-21T10:07:36;6.87;;;3.40;;
68944;SDS011;55984;48.790;8.990;2023-08-21T10:10:03;4.73;;;3.20;;
68944;SDS011;55984;48.790;8.990;2023-08-21T10:12:29;4.70;;;3.13;;
68944;SDS011;55984;48.790;8.990;2023-08-21T10:14:55;4.53;;;2.93;;
68944;SDS011;55984;48.790;8.990;2023-08-21T10:17:21;5.13;;;3.40;;
68944;SDS011;55984;48.790;8.990;2023-08-21T10:19:51;4.73;;;3.30;;
68944;SDS011;55984;48.790;8.990;2023-08-21T10:25:18;6.10;;;3.20;;
68944;SDS011;55984;48.790;8.990;2023-08-21T10:27:51;5.13;;;3.60;;
68944;SDS011;55984;48.790;8.990;2023-08-21T10:30:22;5.93;;;3.37;;
68944;SDS011;55984;48.790;8.990;2023-08-21T10:32:50;5.10;;;3.10;;
68944;SDS011;55984;48.790;8.990;2023-08-21T10:35:18;4.87;;;3.33;;
68944;SDS011;55984;48.790;8.990;2023-08-21T10:40:35;6.00;;;3.53;;
68944;SDS011;55984;48.790;8.990;2023-08-21T10:43:02;4.17;;;3.40;;
68944;SDS011;55984;48.790;8.990;2023-08-21T10:45:29;4.10;;;3.23;;
68944;SDS011;55984;48.790;8.990;2023-08-21T10:47:58;4.77;;;3.60;;
68944;SDS011;55984;48.790;8.990;2023-08-21T10:50:25;5.57;;;3.50;;
68944;SDS011;55984;48.790;8.990;2023-08-21T10:52:52;5.67;;;3.73;;
68944;SDS011;55984;48.790;8.990;2023-08-21T10:55:19;5.93;;;3.33;;
68944;SDS011;55984;48.790;8.990;2023-08-21T10:57:46;5.03;;;3.50;;
68944;SDS011;55984;48.790;8.990;2023-08-21T11:00:18;4.80;;;3.37;;
68944;SDS011;55984;48.790;8.990;2023-08-21T11:02:46;5.00;;;3.80;;
68944;SDS011;55984;48.790;8.990;2023-08-21T11:05:15;5.10;;;3.70;;
68944;SDS011;55984;48.790;8.990;2023-08-21T11:07:42;6.23;;;3.50;;
68944;SDS011;55984;48.790;8.990;2023-08-21T11:10:11;5.27;;;3.83;;
68944;SDS011;55984;48.790;8.990;2023-08-21T11:12:38;4.87;;;3.33;;
68944;SDS011;55984;48.790;8.990;2023-08-21T11:15:13;4.85;;;3.55;;
68944;SDS011;55984;48.790;8.990;2023-08-21T11:17:41;4.65;;;3.35;;
68944;SDS011;55984;48.790;8.990;2023-08-21T11:20:07;4.88;;;3.25;;
68944;SDS011;55984;48.790;8.990;2023-08-21T11:22:36;8.82;;;3.78;;
68944;SDS011;55984;48.790;8.990;2023-08-21T11:25:02;4.63;;;3.50;;
68944;SDS011;55984;48.790;8.990;2023-08-21T11:27:28;4.05;;;3.30;;
68944;SDS011;55984;48.790;8.990;2023-08-21T11:29:54;5.10;;;3.53;;
68944;SDS011;55984;48.790;8.990;2023-08-21T11:32:21;5.10;;;3.63;;
68944;SDS011;55984;48.790;8.990;2023-08-21T11:34:49;5.22;;;3.60;;
68944;SDS011;55984;48.790;8.990;2023-08-21T11:37:19;4.47;;;3.45;;
68944;SDS011;55984;48.790;8.990;2023-08-21T11:39:49;4.28;;;3.30;;
68944;SDS011;55984;48.790;8.990;2023-08-21T11:42:20;4.90;;;4.03;;
68944;SDS011;55984;48.790;8.990;2023-08-21T11:44:52;5.25;;;3.90;;
68944;SDS011;55984;48.790;8.990;2023-08-21T11:47:19;4.22;;;3.53;;
68944;SDS011;55984;48.790;8.990;2023-08-21T11:49:46;4.97;;;3.42;;
68944;SDS011;55984;48.790;8.990;2023-08-21T11:52:14;4.63;;;3.42;;
68944;SDS011;55984;48.790;8.990;2023-08-21T11:54:47;4.45;;;3.40;;
68944;SDS011;55984;48.790;8.990;2023-08-21T11:57:14;7.38;;;3.75;;
68944;SDS011;55984;48.790;8.990;2023-08-21T11:59:41;4.80;;;3.40;;
68944;SDS011;55984;48.790;8.990;2023-08-21T12:02:10;7.10;;;3.53;;
68944;SDS011;55984;48.790;8.990;2023-08-21T12:04:51;4.78;;;3.65;;
68944;SDS011;55984;48.790;8.990;2023-08-21T12:07:18;5.43;;;3.47;;
68944;SDS011;55984;48.790;8.990;2023-08-21T12:09:48;5.20;;;3.60;;
68944;SDS011;55984;48.790;8.990;2023-08-21T12:12:15;5.13;;;3.45;;
68944;SDS011;55984;48.790;8.990;2023-08-21T12:14:42;4.47;;;3.40;;
68944;SDS011;55984;48.790;8.990;2023-08-21T12:17:08;4.18;;;3.10;;
68944;SDS011;55984;48.790;8.990;2023-08-21T12:19:34;4.80;;;3.97;;
68944;SDS011;55984;48.790;8.990;2023-08-21T12:22:01;5.82;;;3.60;;
68944;SDS011;55984;48.790;8.990;2023-08-21T12:24:28;5.00;;;3.30;;
68944;SDS011;55984;48.790;8.990;2023-08-21T12:26:55;4.83;;;3.50;;
68944;SDS011;55984;48.790;8.990;2023-08-21T12:29:21;4.90;;;3.78;;
68944;SDS011;55984;48.790;8.990;2023-08-21T12:31:47;7.93;;;3.60;;
68944;SDS011;55984;48.790;8.990;2023-08-21T12:34:17;4.45;;;3.42;;
68944;SDS011;55984;48.790;8.990;2023-08-21T12:36:43;6.07;;;3.92;;
68944;SDS011;55984;48.790;8.990;2023-08-21T12:39:10;6.68;;;3.40;;
68944;SDS011;55984;48.790;8.990;2023-08-21T12:41:36;4.60;;;3.35;;
68944;SDS011;55984;48.790;8.990;2023-08-21T12:44:03;6.20;;;3.60;;
68944;SDS011;55984;48.790;8.990;2023-08-21T12:52:28;4.93;;;3.60;;
68944;SDS011;55984;48.790;8.990;2023-08-21T12:54:59;6.60;;;3.97;;
68944;SDS011;55984;48.790;8.990;2023-08-21T12:57:31;5.63;;;3.80;;
68944;SDS011;55984;48.790;8.990;2023-08-21T12:59:58;4.93;;;3.80;;
68944;SDS011;55984;48.790;8.990;2023-08-21T13:02:25;4.50;;;3.50;;
68944;SDS011;55984;48.790;8.990;2023-08-21T13:04:53;3.90;;;3.27;;
68944;SDS011;55984;48.790;8.990;2023-08-21T13:07:20;4.97;;;3.60;;
68944;SDS011;55984;48.790;8.990;2023-08-21T13:09:49;6.47;;;3.57;;
68944;SDS011;55984;48.790;8.990;2023-08-21T13:12:15;6.60;;;3.93;;
68944;SDS011;55984;48.790;8.990;2023-08-21T13:14:41;6.97;;;4.23;;
68944;SDS011;55984;48.790;8.990;2023-08-21T13:17:07;6.30;;;3.90;;
68944;SDS011;55984;48.790;8.990;2023-08-21T13:19:35;6.43;;;3.80;;
68944;SDS011;55984;48.790;8.990;2023-08-21T13:22:01;7.13;;;4.20;;
68944;SDS011;55984;48.790;8.990;2023-08-21T13:24:27;7.00;;;3.67;;
68944;SDS011;55984;48.790;8.990;2023-08-21T13:26:53;5.43;;;4.00;;
68944;SDS011;55984;48.790;8.990;2023-08-21T13:29:19;6.90;;;4.70;;
68944;SDS011;55984;48.790;8.990;2023-08-21T13:31:45;5.77;;;3.60;;
68944;SDS011;55984;48.790;8.990;2023-08-21T13:34:11;5.30;;;3.67;;
68944;SDS011;55984;48.790;8.990;2023-08-21T13:36:39;5.03;;;3.67;;
68944;SDS011;55984;48.790;8.990;2023-08-21T13:39:05;6.90;;;4.07;;
68944;SDS011;55984;48.790;8.990;2023-08-21T13:41:32;7.70;;;4.63;;
68944;SDS011;55984;48.790;8.990;2023-08-21T13:43:57;7.80;;;3.63;;
68944;SDS011;55984;48.790;8.990;2023-08-21T13:46:23;5.87;;;3.90;;
68944;SDS011;55984;48.790;8.990;2023-08-21T13:48:49;6.73;;;4.27;;
68944;SDS011;55984;48.790;8.990;2023-08-21T13:51:15;5.50;;;3.67;;
68944;SDS011;55984;48.790;8.990;2023-08-21T13:53:41;6.20;;;3.43;;
68944;SDS011;55984;48.790;8.990;2023-08-21T13:56:07;6.10;;;3.50;;
68944;SDS011;55984;48.790;8.990;2023-08-21T13:58:33;6.73;;;3.90;;
68944;SDS011;55984;48.790;8.990;2023-08-21T14:00:59;4.80;;;3.60;;
68944;SDS011;55984;48.790;8.990;2023-08-21T14:03:25;4.77;;;3.40;;
68944;SDS011;55984;48.790;8.990;2023-08-21T14:05:51;4.80;;;3.47;;
68944;SDS011;55984;48.790;8.990;2023-08-21T14:08:17;7.27;;;4.07;;
68944;SDS011;55984;48.790;8.990;2023-08-21T14:10:46;5.60;;;3.90;;
68944;SDS011;55984;48.790;8.990;2023-08-21T14:13:13;4.83;;;3.27;;
68944;SDS011;55984;48.790;8.990;2023-08-21T14:15:39;9.73;;;4.10;;
68944;SDS011;55984;48.790;8.990;2023-08-21T14:18:05;5.97;;;4.00;;
68944;SDS011;55984;48.790;8.990;2023-08-21T14:20:31;4.60;;;3.30;;
68944;SDS011;55984;48.790;8.990;2023-08-21T14:22:57;6.63;;;3.60;;
68944;SDS011;55984;48.790;8.990;2023-08-21T14:25:26;5.23;;;3.90;;
68944;SDS011;55984;48.790;8.990;2023-08-21T14:27:55;4.77;;;3.53;;
68944;SDS011;55984;48.790;8.990;2023-08-21T14:30:33;5.70;;;3.50;;
68944;SDS011;55984;48.790;8.990;2023-08-21T14:33:07;4.63;;;3.60;;
68944;SDS011;55984;48.790;8.990;2023-08-21T14:35:43;4.63;;;3.53;;
68944;SDS011;55984;48.790;8.990;2023-08-21T14:38:12;6.10;;;3.73;;
68944;SDS011;55984;48.790;8.990;2023-08-21T14:40:41;4.77;;;3.40;;
68944;SDS011;55984;48.790;8.990;2023-08-21T14:43:11;6.00;;;4.20;;
68944;SDS011;55984;48.790;8.990;2023-08-21T14:45:45;5.60;;;3.97;;
68944;SDS011;55984;48.790;8.990;2023-08-21T14:48:11;5.47;;;3.70;;
68944;SDS011;55984;48.790;8.990;2023-08-21T14:50:37;4.87;;;3.70;;
68944;SDS011;55984;48.790;8.990;2023-08-21T14:53:04;6.17;;;3.80;;
68944;SDS011;55984;48.790;8.990;2023-08-21T14:55:39;4.80;;;3.33;;
68944;SDS011;55984;48.790;8.990;2023-08-21T14:58:05;5.27;;;3.47;;
68944;SDS011;55984;48.790;8.990;2023-08-21T15:00:34;6.10;;;3.90;;
68944;SDS011;55984;48.790;8.990;2023-08-21T15:03:05;5.70;;;3.80;;
68944;SDS011;55984;48.790;8.990;2023-08-21T15:05:31;5.57;;;3.70;;